Marco Polo — C6JZ7 — position and weather

sailwx.info

Track history (hours):
 
Tides and Currents Weather Stations Pressure Air Temp Water Temp Dewpoint Dewpoint Depression Visibility Wind Speed Wind Dir Waves Ship Positions

Marco Polo

Operator: Orient Lines

Last reported at 2015-Sep-02 18:33 UTC. Time now 2015-Sep-02 19:06 UTC.
Position N 55°45' W 006°38'.

Type: Ship. MMSI: 308691456.

Date/timePositionNaut miles runAvg speedWind from/ knotsBaromVisibWave heightAir tempDewpointWater temp
2015-Sep-02 18:33N 55°45' W 006°38'194 4.5
2015-Aug-31 23:24N 58°43' W 004°14'1213.5
2015-Aug-31 22:33N 58°43' W 003°51'1212.5
2015-Aug-31 21:33N 58°43' W 003°27'1010.5
2015-Aug-31 20:33N 58°43' W 003°07'7 7.0
2015-Aug-31 19:33N 58°43' W 002°54'1312.4
2015-Aug-31 18:32N 58°53' W 002°38'1010.3
2015-Aug-31 17:33N 59°01' W 002°50'4 4.1
2015-Aug-31 16:31N 58°60' W 002°58'0 0.0
2015-Aug-31 15:33N 58°60' W 002°58'0 0.0
2015-Aug-31 14:33N 58°60' W 002°58'0 0.0
2015-Aug-31 13:32N 58°60' W 002°58'0 0.0
2015-Aug-31 12:32N 58°60' W 002°58'0 0.0
2015-Aug-31 11:32N 58°60' W 002°58'0 0.0
2015-Aug-31 10:31N 58°60' W 002°58'0 0.0
2015-Aug-31 09:31N 58°60' W 002°58'0 0.0
2015-Aug-31 08:33N 58°60' W 002°58'0 0.0
2015-Aug-31 07:33N 58°60' W 002°58'0 0.1
2015-Aug-31 06:34N 59°00' W 002°58'8 7.8
2015-Aug-31 05:33N 58°60' W 002°43'7815.0
2015-Aug-31 00:22N 57°48' W 001°48'1012.6
2015-Aug-30 23:33N 57°38' W 001°42'15315.3
2015-Aug-30 13:33N 55°12' W 000°19'1716.7
2015-Aug-30 12:32N 54°56' W 000°11'1717.4
2015-Aug-30 11:33N 54°39' W 000°03'1818.2
2015-Aug-30 10:33N 54°22' E 000°07'1918.6
2015-Aug-30 09:33N 54°05' E 000°21'1818.0
2015-Aug-30 08:33N 53°50' E 000°39'3316.0
2015-Aug-30 06:30N 53°23' E 001°08'1313.3
2015-Aug-30 05:32N 53°12' E 001°21'1414.2
2015-Aug-30 04:33N 53°03' E 001°38'1615.7
2015-Aug-30 03:33N 52°55' E 002°01'1616.1
2015-Aug-30 02:33N 52°40' E 002°10'1717.5
2015-Aug-30 01:33N 52°24' E 002°01'3514.9
2015-Aug-29 23:13N 51°50' E 001°42'811.7
2015-Aug-29 22:32N 51°46' E 001°31'1313.5
2015-Aug-29 21:33N 51°36' E 001°18'1312.8
2015-Aug-29 20:33N 51°29' E 000°60'1413.1
2015-Aug-29 19:31N 51°30' E 000°38'1111.2
2015-Aug-29 18:34N 51°27' E 000°22'0 0.2
2015-Aug-29 17:34N 51°27' E 000°22'0 0.0
2015-Aug-29 16:34N 51°27' E 000°22'0 0.0
2015-Aug-29 15:34N 51°27' E 000°22'0 0.0
2015-Aug-29 14:34N 51°27' E 000°22'0 0.0
2015-Aug-29 13:34N 51°27' E 000°22'0 0.0
2015-Aug-29 12:34N 51°27' E 000°22'0 0.0
2015-Aug-29 11:34N 51°27' E 000°22'0 0.0
2015-Aug-29 10:34N 51°27' E 000°22'0 0.0
2015-Aug-29 09:34N 51°27' E 000°22'0 0.0
2015-Aug-29 08:34N 51°27' E 000°22'0 0.0
2015-Aug-29 07:34N 51°27' E 000°22'4 4.1
2015-Aug-29 06:33N 51°29' E 000°28'1110.9
2015-Aug-29 05:33N 51°30' E 000°45'1212.5
2015-Aug-29 04:34N 51°31' E 001°05'1010.4
2015-Aug-29 03:34N 51°36' E 001°20'1111.2
2015-Aug-29 02:33N 51°27' E 001°31'9 8.8
2015-Aug-29 01:33N 51°19' E 001°37'1211.6
2015-Aug-29 00:33N 51°08' E 001°42'1211.9
2015-Aug-28 23:33N 50°59' E 001°29'35112.9
2015-Aug-27 20:23N 51°25' W 007°50'1315.8
2015-Aug-27 19:33N 51°35' W 008°03'1515.0
2015-Aug-27 18:33N 51°48' W 008°16'3 3.2
2015-Aug-27 17:33N 51°50' W 008°20'0 0.0
2015-Aug-27 16:33N 51°50' W 008°20'0 0.0
2015-Aug-27 15:32N 51°50' W 008°20'0 0.0
2015-Aug-27 14:32N 51°50' W 008°20'0 0.0
2015-Aug-27 13:31N 51°50' W 008°20'0 0.0
2015-Aug-27 12:31N 51°50' W 008°20'0 0.0
2015-Aug-27 11:31N 51°50' W 008°20'0 0.0
2015-Aug-27 10:34N 51°50' W 008°20'3 2.6
2015-Aug-27 09:34N 51°51' W 008°16'1110.8
2015-Aug-27 08:33N 51°40' W 008°19'1615.8
2015-Aug-27 07:33N 51°31' W 008°40'1515.4
2015-Aug-27 06:33N 51°25' W 009°03'1515.3
2015-Aug-27 05:33N 51°19' W 009°25'1515.0
2015-Aug-27 04:33N 51°18' W 009°49'  
Track history (hours):
 
Tides and Currents Weather Stations Pressure Air Temp Water Temp Dewpoint Dewpoint Depression Visibility Wind Speed Wind Dir Waves Ship Positions

Marco Polo

Operator: Orient Lines

Last reported at 2015-Sep-02 18:33 UTC. Time now 2015-Sep-02 19:06 UTC.
Position N 55°45' W 006°38'.

Type: Ship. MMSI: 308691456.

Date/timePositionNaut miles runAvg speedWind from/ knotsBaromVisibWave heightAir tempDewpointWater temp
2015-Sep-02 18:33N 55°45' W 006°38'194 4.5
2015-Aug-31 23:24N 58°43' W 004°14'1213.5
2015-Aug-31 22:33N 58°43' W 003°51'1212.5
2015-Aug-31 21:33N 58°43' W 003°27'1010.5
2015-Aug-31 20:33N 58°43' W 003°07'7 7.0
2015-Aug-31 19:33N 58°43' W 002°54'1312.4
2015-Aug-31 18:32N 58°53' W 002°38'1010.3
2015-Aug-31 17:33N 59°01' W 002°50'4 4.1
2015-Aug-31 16:31N 58°60' W 002°58'0 0.0
2015-Aug-31 15:33N 58°60' W 002°58'0 0.0
2015-Aug-31 14:33N 58°60' W 002°58'0 0.0
2015-Aug-31 13:32N 58°60' W 002°58'0 0.0
2015-Aug-31 12:32N 58°60' W 002°58'0 0.0
2015-Aug-31 11:32N 58°60' W 002°58'0 0.0
2015-Aug-31 10:31N 58°60' W 002°58'0 0.0
2015-Aug-31 09:31N 58°60' W 002°58'0 0.0
2015-Aug-31 08:33N 58°60' W 002°58'0 0.0
2015-Aug-31 07:33N 58°60' W 002°58'0 0.1
2015-Aug-31 06:34N 59°00' W 002°58'8 7.8
2015-Aug-31 05:33N 58°60' W 002°43'7815.0
2015-Aug-31 00:22N 57°48' W 001°48'1012.6
2015-Aug-30 23:33N 57°38' W 001°42'15315.3
2015-Aug-30 13:33N 55°12' W 000°19'1716.7
2015-Aug-30 12:32N 54°56' W 000°11'1717.4
2015-Aug-30 11:33N 54°39' W 000°03'1818.2
2015-Aug-30 10:33N 54°22' E 000°07'1918.6
2015-Aug-30 09:33N 54°05' E 000°21'1818.0
2015-Aug-30 08:33N 53°50' E 000°39'3316.0
2015-Aug-30 06:30N 53°23' E 001°08'1313.3
2015-Aug-30 05:32N 53°12' E 001°21'1414.2
2015-Aug-30 04:33N 53°03' E 001°38'1615.7
2015-Aug-30 03:33N 52°55' E 002°01'1616.1
2015-Aug-30 02:33N 52°40' E 002°10'1717.5
2015-Aug-30 01:33N 52°24' E 002°01'3514.9
2015-Aug-29 23:13N 51°50' E 001°42'811.7
2015-Aug-29 22:32N 51°46' E 001°31'1313.5
2015-Aug-29 21:33N 51°36' E 001°18'1312.8
2015-Aug-29 20:33N 51°29' E 000°60'1413.1
2015-Aug-29 19:31N 51°30' E 000°38'1111.2
2015-Aug-29 18:34N 51°27' E 000°22'0 0.2
2015-Aug-29 17:34N 51°27' E 000°22'0 0.0
2015-Aug-29 16:34N 51°27' E 000°22'0 0.0
2015-Aug-29 15:34N 51°27' E 000°22'0 0.0
2015-Aug-29 14:34N 51°27' E 000°22'0 0.0
2015-Aug-29 13:34N 51°27' E 000°22'0 0.0
2015-Aug-29 12:34N 51°27' E 000°22'0 0.0
2015-Aug-29 11:34N 51°27' E 000°22'0 0.0
2015-Aug-29 10:34N 51°27' E 000°22'0 0.0
2015-Aug-29 09:34N 51°27' E 000°22'0 0.0
2015-Aug-29 08:34N 51°27' E 000°22'0 0.0
2015-Aug-29 07:34N 51°27' E 000°22'4 4.1
2015-Aug-29 06:33N 51°29' E 000°28'1110.9
2015-Aug-29 05:33N 51°30' E 000°45'1212.5
2015-Aug-29 04:34N 51°31' E 001°05'1010.4
2015-Aug-29 03:34N 51°36' E 001°20'1111.2
2015-Aug-29 02:33N 51°27' E 001°31'9 8.8
2015-Aug-29 01:33N 51°19' E 001°37'1211.6
2015-Aug-29 00:33N 51°08' E 001°42'1211.9
2015-Aug-28 23:33N 50°59' E 001°29'35112.9
2015-Aug-27 20:23N 51°25' W 007°50'1315.8
2015-Aug-27 19:33N 51°35' W 008°03'1515.0
2015-Aug-27 18:33N 51°48' W 008°16'3 3.2
2015-Aug-27 17:33N 51°50' W 008°20'0 0.0
2015-Aug-27 16:33N 51°50' W 008°20'0 0.0
2015-Aug-27 15:32N 51°50' W 008°20'0 0.0
2015-Aug-27 14:32N 51°50' W 008°20'0 0.0
2015-Aug-27 13:31N 51°50' W 008°20'0 0.0
2015-Aug-27 12:31N 51°50' W 008°20'0 0.0
2015-Aug-27 11:31N 51°50' W 008°20'0 0.0
2015-Aug-27 10:34N 51°50' W 008°20'3 2.6
2015-Aug-27 09:34N 51°51' W 008°16'1110.8
2015-Aug-27 08:33N 51°40' W 008°19'1615.8
2015-Aug-27 07:33N 51°31' W 008°40'1515.4
2015-Aug-27 06:33N 51°25' W 009°03'1515.3
2015-Aug-27 05:33N 51°19' W 009°25'1515.0
2015-Aug-27 04:33N 51°18' W 009°49'  

Dump ship's entire track history